Time;durP1;ratioP1;P1;durP2;ratioP2;P2;SDS_P1;SDS_P2;PMS_P1;PMS_P2;Temp;Humidity;BMP_temperature;BMP_pressure;BME280_temperature;BME280_humidity;BME280_pressure;Samples;Min_cycle;Max_cycle;Signal;HPM_P1;HPM_P2
2023/08/02 00:00:51;;;;;;;4.83;2.63;;;;;;;;;;4997483;28;20432;-93
2023/08/02 00:03:18;;;;;;;4.40;2.07;;;;;;;;;;5007109;28;20416;-92
2023/08/02 00:05:51;;;;;;;3.77;2.00;;;;;;;;;;5008552;28;20420;-93
2023/08/02 00:08:17;;;;;;;6.67;2.37;;;;;;;;;;5008239;28;20408;-93
2023/08/02 00:10:43;;;;;;;2.13;1.33;;;;;;;;;;5039280;28;20887;-94
2023/08/02 00:13:09;;;;;;;2.87;1.60;;;;;;;;;;5006884;28;20515;-94
2023/08/02 00:15:38;;;;;;;2.20;1.43;;;;;;;;;;5005309;28;20436;-93
2023/08/02 00:18:04;;;;;;;1.77;1.43;;;;;;;;;;4982105;28;20449;-94
2023/08/02 00:20:30;;;;;;;4.50;1.60;;;;;;;;;;4971225;28;20449;-94
2023/08/02 00:22:56;;;;;;;4.20;1.57;;;;;;;;;;4971211;28;20515;-93
2023/08/02 00:25:22;;;;;;;2.87;2.13;;;;;;;;;;4975357;28;20568;-93
2023/08/02 00:27:48;;;;;;;3.93;1.77;;;;;;;;;;4969545;28;20417;-93
2023/08/02 00:30:14;;;;;;;7.20;1.53;;;;;;;;;;4987577;28;20452;-93
2023/08/02 00:32:44;;;;;;;2.03;1.47;;;;;;;;;;4984615;28;20846;-93
2023/08/02 00:35:10;;;;;;;4.70;1.77;;;;;;;;;;4964797;28;20440;-92
2023/08/02 00:37:36;;;;;;;2.90;1.50;;;;;;;;;;4967075;28;20441;-94
2023/08/02 00:40:02;;;;;;;3.33;1.63;;;;;;;;;;4986928;28;20409;-93
2023/08/02 00:42:28;;;;;;;4.93;2.13;;;;;;;;;;4989203;28;20953;-93
2023/08/02 00:44:54;;;;;;;3.87;1.60;;;;;;;;;;4986318;28;20440;-92
2023/08/02 00:47:21;;;;;;;5.57;2.07;;;;;;;;;;4969899;28;20456;-94
2023/08/02 00:49:47;;;;;;;3.20;2.23;;;;;;;;;;5027875;28;20463;-93
2023/08/02 00:52:13;;;;;;;3.17;1.60;;;;;;;;;;5012851;28;20442;-93
2023/08/02 00:54:41;;;;;;;2.63;1.90;;;;;;;;;;5023539;28;20457;-93
2023/08/02 00:57:07;;;;;;;2.77;1.93;;;;;;;;;;5015419;28;20439;-93
2023/08/02 00:59:33;;;;;;;3.30;1.60;;;;;;;;;;4992643;28;20432;-93
2023/08/02 01:01:59;;;;;;;4.30;2.83;;;;;;;;;;5020106;28;20475;-93
2023/08/02 01:04:25;;;;;;;2.43;1.50;;;;;;;;;;5033583;28;20425;-93
2023/08/02 01:06:54;;;;;;;4.03;1.47;;;;;;;;;;5008340;28;20424;-94
2023/08/02 01:09:26;;;;;;;2.73;1.70;;;;;;;;;;4993862;28;20473;-93
2023/08/02 01:12:02;;;;;;;4.97;1.40;;;;;;;;;;5018320;28;20420;-93
2023/08/02 01:14:28;;;;;;;2.73;1.40;;;;;;;;;;5004394;28;20495;-93
2023/08/02 01:16:55;;;;;;;1.90;1.43;;;;;;;;;;5005246;28;20429;-92
2023/08/02 01:19:23;;;;;;;3.67;2.10;;;;;;;;;;5002205;28;20452;-93
2023/08/02 01:21:49;;;;;;;3.93;1.87;;;;;;;;;;4998479;28;20434;-92
2023/08/02 01:24:16;;;;;;;2.90;1.63;;;;;;;;;;4996260;28;20451;-93
2023/08/02 02:42:00;;;;;;;4.10;1.90;;;;;;;;;;761120;22;20857;-92
2023/08/02 02:44:40;;;;;;;2.17;1.33;;;;;;;;;;5025299;28;20444;-92
2023/08/02 02:47:06;;;;;;;3.60;1.77;;;;;;;;;;5009716;28;20158;-93
2023/08/02 02:49:34;;;;;;;4.43;1.73;;;;;;;;;;5007594;28;20472;-92
2023/08/02 02:52:01;;;;;;;2.20;1.27;;;;;;;;;;5007109;28;20448;-93
2023/08/02 02:54:27;;;;;;;5.37;1.77;;;;;;;;;;5004833;28;20840;-92
2023/08/02 02:56:53;;;;;;;2.57;1.60;;;;;;;;;;4995491;28;20421;-92
2023/08/02 02:59:19;;;;;;;3.77;2.07;;;;;;;;;;5006814;28;20528;-92
2023/08/02 03:01:45;;;;;;;3.40;1.60;;;;;;;;;;5002297;28;20496;-92
2023/08/02 09:07:53;;;;;;;4.23;2.97;;;;;;;;;;5010136;28;20473;-94
2023/08/02 09:10:19;;;;;;;4.60;3.13;;;;;;;;;;5009588;28;20457;-94
2023/08/02 09:12:46;;;;;;;4.00;2.30;;;;;;;;;;5026589;28;20420;-95
2023/08/02 09:15:13;;;;;;;4.87;3.37;;;;;;;;;;5001880;28;20498;-93
2023/08/02 09:17:52;;;;;;;4.30;3.00;;;;;;;;;;4997298;28;20444;-93
2023/08/02 09:20:19;;;;;;;3.93;2.63;;;;;;;;;;4993461;28;20440;-92
2023/08/02 09:22:45;;;;;;;5.10;2.83;;;;;;;;;;4993840;28;20436;-94
2023/08/02 09:25:24;;;;;;;4.10;3.00;;;;;;;;;;4993425;28;20417;-93
2023/08/02 09:27:50;;;;;;;6.57;3.37;;;;;;;;;;4992811;28;21416;-91
2023/08/02 09:30:22;;;;;;;5.20;2.83;;;;;;;;;;5006275;28;20463;-92
2023/08/02 09:32:58;;;;;;;4.03;3.10;;;;;;;;;;5024433;28;20537;-93
2023/08/02 09:35:25;;;;;;;3.97;3.00;;;;;;;;;;4992344;28;20452;-93
2023/08/02 09:37:51;;;;;;;4.40;2.80;;;;;;;;;;5012323;28;20436;-90
2023/08/02 09:40:17;;;;;;;4.43;2.70;;;;;;;;;;5008472;28;20780;-90
2023/08/02 09:42:43;;;;;;;5.30;3.20;;;;;;;;;;5013556;28;20412;-91
2023/08/02 09:45:09;;;;;;;3.50;2.80;;;;;;;;;;4988363;28;20507;-92
2023/08/02 09:47:35;;;;;;;3.23;2.90;;;;;;;;;;4991551;28;20471;-91
2023/08/02 09:50:07;;;;;;;5.60;3.30;;;;;;;;;;4988164;28;20453;-88
2023/08/02 09:52:33;;;;;;;4.40;3.63;;;;;;;;;;4969884;28;20926;-90
2023/08/02 09:55:00;;;;;;;7.13;3.60;;;;;;;;;;4953655;28;20402;-91
2023/08/02 09:57:26;;;;;;;4.33;3.00;;;;;;;;;;4968949;28;20434;-91
2023/08/02 09:59:55;;;;;;;5.13;3.40;;;;;;;;;;4955801;28;20422;-93
2023/08/02 10:02:26;;;;;;;4.30;3.87;;;;;;;;;;4952638;28;20425;-92
2023/08/02 10:04:56;;;;;;;6.70;4.03;;;;;;;;;;4968063;28;20441;-93
2023/08/02 10:07:23;;;;;;;6.87;3.30;;;;;;;;;;4955214;28;20528;-92
2023/08/02 10:09:49;;;;;;;4.87;3.57;;;;;;;;;;4985553;28;20537;-93
2023/08/02 13:03:43;;;;;;;3.30;2.70;;;;;;;;;;4991779;28;20477;-88
2023/08/02 13:06:09;;;;;;;4.93;3.30;;;;;;;;;;4979809;28;20425;-88
2023/08/02 13:08:35;;;;;;;6.93;2.47;;;;;;;;;;4980278;28;20440;-88
2023/08/02 13:11:10;;;;;;;7.90;3.47;;;;;;;;;;4986608;28;20457;-95
2023/08/02 13:13:37;;;;;;;4.10;2.70;;;;;;;;;;5005957;28;20962;-92
2023/08/02 13:16:03;;;;;;;3.87;2.90;;;;;;;;;;4990750;28;20433;-94
2023/08/02 13:18:32;;;;;;;4.43;2.83;;;;;;;;;;4986398;28;20433;-94
2023/08/02 13:20:58;;;;;;;3.33;2.50;;;;;;;;;;5003599;28;20446;-93
2023/08/02 13:23:26;;;;;;;4.50;2.87;;;;;;;;;;5005257;28;20424;-93
2023/08/02 13:25:52;;;;;;;4.80;2.80;;;;;;;;;;5008954;28;20424;-95
2023/08/02 13:28:25;;;;;;;3.73;2.70;;;;;;;;;;5007987;28;20421;-96
2023/08/02 13:30:51;;;;;;;5.23;2.50;;;;;;;;;;5011688;28;20450;-92
2023/08/02 13:33:17;;;;;;;5.63;4.20;;;;;;;;;;5009098;28;20434;-96
2023/08/02 13:35:43;;;;;;;4.03;2.70;;;;;;;;;;5011336;28;20417;-94
2023/08/02 13:38:10;;;;;;;4.33;2.90;;;;;;;;;;4993027;28;20459;-95
2023/08/02 13:40:36;;;;;;;4.87;3.17;;;;;;;;;;4995700;28;20504;-95
2023/08/02 13:43:03;;;;;;;8.50;2.60;;;;;;;;;;4993730;28;20477;-95
2023/08/02 13:45:30;;;;;;;4.57;2.50;;;;;;;;;;4993802;28;20433;-96
2023/08/02 13:48:02;;;;;;;4.87;2.40;;;;;;;;;;4993195;28;20424;-95
2023/08/02 13:50:28;;;;;;;3.03;2.10;;;;;;;;;;5009932;28;20453;-95
2023/08/02 13:52:55;;;;;;;3.70;2.63;;;;;;;;;;5008893;28;20920;-96
2023/08/02 22:17:43;;;;;;;5.50;1.80;;;;;;;;;;1254447;22;20766;-89
2023/08/02 22:20:12;;;;;;;2.73;1.60;;;;;;;;;;5020262;28;20518;-91
2023/08/02 22:22:38;;;;;;;2.37;1.63;;;;;;;;;;5003229;28;20443;-90
2023/08/02 22:25:05;;;;;;;3.77;1.97;;;;;;;;;;5004551;28;20589;-91
2023/08/02 22:27:31;;;;;;;3.00;1.43;;;;;;;;;;5006551;28;20432;-90
2023/08/02 22:29:57;;;;;;;3.27;1.40;;;;;;;;;;5018405;28;20443;-91
2023/08/02 22:32:23;;;;;;;2.93;1.30;;;;;;;;;;5021055;28;21074;-91
2023/08/02 22:34:50;;;;;;;4.23;1.50;;;;;;;;;;5011986;28;20436;-91
2023/08/02 22:37:18;;;;;;;3.00;1.40;;;;;;;;;;5027428;28;20475;-91
2023/08/02 22:39:44;;;;;;;2.53;1.47;;;;;;;;;;5000051;28;20432;-91
2023/08/02 22:42:10;;;;;;;4.57;1.60;;;;;;;;;;4997986;28;20869;-92
2023/08/02 22:44:36;;;;;;;2.27;1.53;;;;;;;;;;5005679;28;20429;-91
2023/08/02 22:47:02;;;;;;;4.10;1.37;;;;;;;;;;5003003;28;20519;-91
2023/08/02 22:49:31;;;;;;;1.83;1.17;;;;;;;;;;5008613;28;20415;-90
2023/08/02 22:51:57;;;;;;;6.03;1.60;;;;;;;;;;5005446;28;20448;-91
2023/08/02 22:54:23;;;;;;;3.17;1.67;;;;;;;;;;4995988;28;20436;-92
2023/08/02 22:56:49;;;;;;;4.77;2.00;;;;;;;;;;5024190;28;20431;-92
2023/08/02 22:59:17;;;;;;;2.77;1.50;;;;;;;;;;5011481;28;20479;-91
2023/08/02 23:01:43;;;;;;;5.40;1.40;;;;;;;;;;5018707;28;20429;-91
2023/08/02 23:04:09;;;;;;;9.63;1.40;;;;;;;;;;5003431;28;20518;-91
2023/08/02 23:06:35;;;;;;;7.40;1.70;;;;;;;;;;4989558;28;20473;-91
2023/08/02 23:09:01;;;;;;;2.23;1.33;;;;;;;;;;5003820;28;20436;-90
2023/08/02 23:11:28;;;;;;;3.17;1.67;;;;;;;;;;5010115;28;20469;-90
2023/08/02 23:13:54;;;;;;;2.77;1.40;;;;;;;;;;4996506;28;20793;-90
2023/08/02 23:16:20;;;;;;;5.03;1.77;;;;;;;;;;5006107;28;20424;-90
2023/08/02 23:18:49;;;;;;;3.00;1.63;;;;;;;;;;5028673;28;20448;-90
